createdAt,value
2023-01-23T06:18:17.619Z,0.43
2023-01-23T06:28:17.582Z,0.35
2023-01-23T06:38:17.747Z,0.21
2023-01-23T06:48:17.711Z,0.22
2023-01-23T06:58:17.777Z,0.25
2023-01-23T07:08:17.734Z,0.17
2023-01-23T07:18:17.807Z,0.23
2023-01-23T07:28:17.663Z,0.22
2023-01-23T07:38:17.923Z,0.16
2023-01-23T07:48:17.686Z,0.14
2023-01-23T07:58:17.751Z,0.13
2023-01-23T08:08:17.826Z,0.12
2023-01-23T08:18:17.691Z,0.16
2023-01-23T08:28:17.851Z,0.15
2023-01-23T08:38:17.630Z,0.12
2023-01-23T08:48:17.840Z,0.15
2023-01-23T08:58:17.738Z,0.15
2023-01-23T09:08:17.803Z,0.14
2023-01-23T09:18:17.660Z,0.16
2023-01-23T09:28:17.741Z,0.20
2023-01-23T09:38:17.790Z,0.20
2023-01-23T09:48:17.765Z,0.19
2023-01-23T09:58:17.729Z,0.20
2023-01-23T10:08:17.778Z,0.22
2023-01-23T10:18:17.971Z,0.25
2023-01-23T10:28:17.700Z,0.26
2023-01-23T10:38:17.767Z,0.31
2023-01-23T10:48:17.831Z,0.33
2023-01-23T10:58:17.805Z,0.42
2023-01-23T11:08:17.570Z,0.44
2023-01-23T11:18:18.303Z,0.44
2023-01-23T11:28:17.687Z,0.56
2023-01-23T11:38:19.773Z,0.57
2023-01-23T11:48:17.808Z,0.59
2023-01-23T11:58:17.674Z,0.60
2023-01-23T12:08:17.848Z,0.59
2023-01-23T12:18:17.815Z,0.63
2023-01-23T12:28:18.141Z,0.67
2023-01-23T12:38:17.630Z,0.70
2023-01-23T12:48:17.787Z,0.74
2023-01-23T12:58:17.657Z,0.84
2023-01-23T13:08:19.923Z,0.87
2023-01-23T13:18:17.683Z,0.87
2023-01-23T13:28:19.560Z,0.89
2023-01-23T13:38:17.706Z,0.90
2023-01-23T14:28:18.029Z,0.91
2023-01-23T14:38:18.011Z,0.89
2023-01-23T14:48:17.858Z,0.89
2023-01-23T14:58:18.025Z,0.90
2023-01-23T15:08:17.987Z,0.89
2023-01-23T15:18:18.056Z,0.88
2023-01-23T15:28:18.226Z,0.81
2023-01-23T15:38:17.971Z,0.80
2023-01-23T15:48:18.245Z,0.77
2023-01-23T15:58:18.098Z,0.78
2023-01-23T16:08:18.175Z,0.81
2023-01-23T16:18:18.237Z,0.75
2023-01-23T16:28:18.342Z,0.75
2023-01-23T16:38:18.160Z,0.70
2023-01-23T16:48:26.067Z,0.76
2023-01-23T16:58:18.207Z,0.72
2023-01-23T17:08:18.302Z,0.73
2023-01-23T17:18:18.305Z,0.75
2023-01-23T17:28:18.104Z,0.73
2023-01-23T17:38:18.334Z,0.70
2023-01-23T17:48:18.102Z,0.69
2023-01-23T17:58:18.165Z,0.68
2023-01-23T18:08:18.313Z,0.69
2023-01-23T18:18:18.306Z,0.74
2023-01-23T18:28:18.163Z,0.70
2023-01-23T18:38:18.318Z,0.70
2023-01-23T18:48:25.179Z,0.65
2023-01-23T18:58:18.036Z,0.64
2023-01-23T19:08:18.199Z,0.61
2023-01-23T19:18:19.503Z,0.61
